Terminal Aerodrome Forecast
Issued by NWS

Home | Current Version | Previous Version | Text Only | Print | Product List | Glossary On
Versions: 1 2 3 4 5 6 7 8 9 10 11 12 13 14 15 16 17 18 19 20 21 22 23 24 25 26 27 28 29 30 31 32 33 34 35 36 37 38 39 40 41 42 43
000
FTUS43 KGRB 242336
TAFRHI
TAF
KRHI 242336Z 2500/2524 35005KT P6SM OVC012
      TEMPO 2502/2506 BKN008
     FM250600 03005KT P6SM OVC008
      TEMPO 2506/2509 3SM -FZDZ BR OVC004
     FM251200 05005KT 4SM -FZDZSN OVC004
      TEMPO 2512/2516 2SM -SN OVC003
     FM251800 02007KT 3SM -DZSN OVC008=

USA.gov is the U.S. government's official web portal to all federal, state and local government web resources and services.